सभी
Ayers Rock Airport (Yulara, Northern Territory) AYQ मौसम
|
Yulara, Northern Territory (AYQ / YAYE)
स्वच्छ आकाश
हल्की हवाएं |
|
18 °C |
AYQ Terminal Area Forecast
| Date | Time (ACST) | Flight Rules | Wind Dir. | Speed | Type | Height AGL (ft) | Visibility | Remarks | ||||||
|---|---|---|---|---|---|---|---|---|---|---|---|---|---|---|
| 05-मई | 02:30 | VFR | 160° | 10 kt | Clouds and Visibility are OK | >= 6 miles | ||||||||
| 05-मई | 01:30 | VFR | 160° | 10 kt | Clouds and Visibility are OK | >= 6 miles | ||||||||
| 05-मई | 00:30 | VFR | 160° | 10 kt | Clouds and Visibility are OK | >= 6 miles | ||||||||
| 04-मई | 23:30 | VFR | 160° | 10 kt | Clouds and Visibility are OK | >= 6 miles | ||||||||
| 04-मई | 22:30 | VFR | 160° | 10 kt | Clouds and Visibility are OK | >= 6 miles | ||||||||
| 04-मई | 21:30 | VFR | 160° | 10 kt | Clouds and Visibility are OK | >= 6 miles | ||||||||
| 04-मई | 20:30 | VFR | 160° | 10 kt | Clouds and Visibility are OK | >= 6 miles | ||||||||
| 04-मई | 19:30 | VFR | 160° | 10 kt | Clouds and Visibility are OK | >= 6 miles | ||||||||
Recent AYQ METAR history
| Date | Time (ACST) | Flight Rules | Wind Dir. | Speed | Type | Height AGL (ft) | Visibility | Temp (°C) | Temp (°F) | Dew Point (°C) | Dew Point (°F) | Rel. Humid. | Pressure | Density Altitude | Remarks |
|---|---|---|---|---|---|---|---|---|---|---|---|---|---|---|---|
| 04-मई | 19:30 | VFR | 140° | 5 kt | 10000 meters | 18° | 64° | 0° | 32° | 30% | 1021 mb | 1,993 ft | |||
| 04-मई | 18:30 | VFR | 190° | 5 kt | 10000 meters | 19° | 66° | -1° | 30° | 26% | 1020 mb | 2,143 ft | |||
| 04-मई | 17:30 | VFR | 180° | 7 kt | 10000 meters | 22° | 71° | -1° | 30° | 21% | 1019 mb | 2,533 ft | |||
| 04-मई | 16:30 | VFR | 130° | 7 kt | 10000 meters | 22° | 71° | 0° | 32° | 23% | 1019 mb | 2,533 ft | |||
| 04-मई | 15:30 | VFR | 150° | 5 kt | 10000 meters | 22° | 71° | 0° | 32° | 23% | 1019 mb | 2,533 ft | |||
| 04-मई | 14:30 | VFR | 80° | 6 kt | 10000 meters | 22° | 71° | 1° | 33° | 25% | 1020 mb | 2,503 ft | |||
| 04-मई | 13:30 | VFR | 210° | 6 kt | 10000 meters | 21° | 69° | 1° | 33° | 26% | 1020 mb | 2,383 ft | |||
| 04-मई | 12:30 | VFR | 100° | 5 kt | 10000 meters | 20° | 68° | 1° | 33° | 28% | 1022 mb | 2,204 ft | |||
| 04-मई | 11:30 | VFR | 120° | 9 kt | 10000 meters | 19° | 66° | 1° | 33° | 30% | 1023 mb | 2,054 ft | |||
| 04-मई | 10:30 | VFR | 120° | 10 kt | 10000 meters | 17° | 62° | 2° | 35° | 36% | 1023 mb | 1,814 ft | |||
| 04-मई | 09:30 | VFR | 140° | 10 kt | 10000 meters | 15° | 59° | 2° | 35° | 41% | 1023 mb | 1,574 ft | |||
| 04-मई | 08:30 | VFR | 150° | 7 kt | 10000 meters | 13° | 55° | 3° | 37° | 51% | 1023 mb | 1,334 ft | |||
| 04-मई | 07:30 | VFR | 180° | 4 kt | 10000 meters | 7° | 44° | 1° | 33° | 66% | 1022 mb | 644 ft | |||
| 04-मई | 06:30 | VFR | 190° | 7 kt | 10000 meters | 7° | 44° | 1° | 33° | 66% | 1021 mb | 673 ft | |||
| 04-मई | 05:30 | VFR | 200° | 6 kt | 10000 meters | 6° | 42° | 0° | 32° | 65% | 1021 mb | 553 ft | |||
| 04-मई | 04:30 | VFR | 190° | 6 kt | 10000 meters | 7° | 44° | 0° | 32° | 61% | 1020 mb | 703 ft | |||
| 04-मई | 03:30 | VFR | 190° | 6 kt | 10000 meters | 8° | 46° | 1° | 33° | 61% | 1020 mb | 823 ft | |||
| 04-मई | 02:30 | VFR | 170° | 4 kt | 10000 meters | 9° | 48° | 0° | 32° | 53% | 1020 mb | 943 ft | |||
| 04-मई | 01:30 | VFR | 180° | 5 kt | 10000 meters | 9° | 48° | 1° | 33° | 57% | 1020 mb | 943 ft | |||
| 04-मई | 00:30 | VFR | 190° | 7 kt | 10000 meters | 10° | 50° | 1° | 33° | 53% | 1020 mb | 1,063 ft | |||
| 03-मई | 23:30 | VFR | 190° | 6 kt | 10000 meters | 11° | 51° | 1° | 33° | 50% | 1020 mb | 1,183 ft | |||
| 03-मई | 22:30 | VFR | 190° | 6 kt | 10000 meters | 12° | 53° | 1° | 33° | 47% | 1020 mb | 1,303 ft | |||
| 03-मई | 21:30 | VFR | 190° | 5 kt | 10000 meters | 14° | 57° | 0° | 32° | 38% | 1020 mb | 1,543 ft | |||
| 03-मई | 20:30 | VFR | 180° | 7 kt | 10000 meters | 16° | 60° | 0° | 32° | 34% | 1020 mb | 1,783 ft |
लॉगिन
| Your browser is unsupported. अपना ब्राऊजर अपग्रेड करें |
